sensor_id;sensor_type;location;lat;lon;timestamp;pressure;altitude;pressure_sealevel;temperature;humidity
50133;BME280;46340;53.148;8.204;2022-07-04T00:01:45;101831.13;;;12.25;100.00
50133;BME280;46340;53.148;8.204;2022-07-04T00:04:10;101832.91;;;12.21;100.00
50133;BME280;46340;53.148;8.204;2022-07-04T00:06:36;101836.69;;;12.16;100.00
50133;BME280;46340;53.148;8.204;2022-07-04T00:09:01;101838.75;;;12.19;100.00
50133;BME280;46340;53.148;8.204;2022-07-04T00:11:26;101838.16;;;12.05;100.00
50133;BME280;46340;53.148;8.204;2022-07-04T00:13:51;101838.19;;;11.96;100.00
50133;BME280;46340;53.148;8.204;2022-07-04T00:16:16;101837.72;;;11.94;100.00
50133;BME280;46340;53.148;8.204;2022-07-04T00:18:42;101829.41;;;11.94;100.00
50133;BME280;46340;53.148;8.204;2022-07-04T00:21:07;101836.41;;;11.92;100.00
50133;BME280;46340;53.148;8.204;2022-07-04T00:23:32;101834.25;;;11.89;100.00
50133;BME280;46340;53.148;8.204;2022-07-04T00:25:57;101827.59;;;11.81;100.00
50133;BME280;46340;53.148;8.204;2022-07-04T00:28:23;101807.94;;;11.74;100.00
50133;BME280;46340;53.148;8.204;2022-07-04T00:30:48;101832.31;;;11.98;100.00
50133;BME280;46340;53.148;8.204;2022-07-04T00:33:13;101828.25;;;11.95;100.00
50133;BME280;46340;53.148;8.204;2022-07-04T00:35:39;101835.75;;;11.95;100.00
50133;BME280;46340;53.148;8.204;2022-07-04T00:38:04;101829.41;;;11.94;100.00
50133;BME280;46340;53.148;8.204;2022-07-04T00:40:29;101831.69;;;11.83;100.00
50133;BME280;46340;53.148;8.204;2022-07-04T00:42:59;101825.16;;;11.79;100.00
50133;BME280;46340;53.148;8.204;2022-07-04T00:45:24;101838.19;;;11.79;100.00
50133;BME280;46340;53.148;8.204;2022-07-04T00:47:49;101834.94;;;11.77;100.00
50133;BME280;46340;53.148;8.204;2022-07-04T00:50:15;101832.97;;;11.86;100.00
50133;BME280;46340;53.148;8.204;2022-07-04T00:52:40;101836.88;;;11.94;100.00
50133;BME280;46340;53.148;8.204;2022-07-04T00:55:05;101831.16;;;11.90;100.00
50133;BME280;46340;53.148;8.204;2022-07-04T00:57:31;101836.22;;;11.79;100.00
50133;BME280;46340;53.148;8.204;2022-07-04T00:59:56;101843.56;;;11.84;100.00
50133;BME280;46340;53.148;8.204;2022-07-04T01:02:21;101847.13;;;11.76;100.00
50133;BME280;46340;53.148;8.204;2022-07-04T01:04:46;101843.88;;;11.74;100.00
50133;BME280;46340;53.148;8.204;2022-07-04T01:07:12;101843.56;;;11.66;100.00
50133;BME280;46340;53.148;8.204;2022-07-04T01:09:37;101844.22;;;11.63;100.00
50133;BME280;46340;53.148;8.204;2022-07-04T01:12:03;101845.69;;;11.61;100.00
50133;BME280;46340;53.148;8.204;2022-07-04T01:14:28;101838.53;;;11.60;100.00
50133;BME280;46340;53.148;8.204;2022-07-04T01:16:53;101840.16;;;11.52;100.00
50133;BME280;46340;53.148;8.204;2022-07-04T01:19:19;101841.94;;;11.57;100.00
50133;BME280;46340;53.148;8.204;2022-07-04T01:21:44;101845.19;;;11.50;100.00
50133;BME280;46340;53.148;8.204;2022-07-04T01:24:12;101843.59;;;11.49;100.00
50133;BME280;46340;53.148;8.204;2022-07-04T01:26:38;101833.81;;;11.43;100.00
50133;BME280;46340;53.148;8.204;2022-07-04T01:29:03;101835.94;;;11.46;100.00
50133;BME280;46340;53.148;8.204;2022-07-04T01:31:28;101841.00;;;11.44;100.00
50133;BME280;46340;53.148;8.204;2022-07-04T01:33:54;101837.72;;;11.42;100.00
50133;BME280;46340;53.148;8.204;2022-07-04T01:36:19;101835.13;;;11.45;100.00
50133;BME280;46340;53.148;8.204;2022-07-04T01:38:44;101844.41;;;11.41;100.00
50133;BME280;46340;53.148;8.204;2022-07-04T01:41:09;101840.81;;;11.49;100.00
50133;BME280;46340;53.148;8.204;2022-07-04T01:43:34;101833.34;;;11.50;100.00
50133;BME280;46340;53.148;8.204;2022-07-04T01:46:00;101832.69;;;11.44;100.00
50133;BME280;46340;53.148;8.204;2022-07-04T01:48:25;101833.97;;;11.38;100.00
50133;BME280;46340;53.148;8.204;2022-07-04T01:50:50;101840.81;;;11.40;100.00
50133;BME280;46340;53.148;8.204;2022-07-04T01:53:16;101849.28;;;11.44;100.00
50133;BME280;46340;53.148;8.204;2022-07-04T01:55:41;101851.38;;;11.38;100.00
50133;BME280;46340;53.148;8.204;2022-07-04T01:58:06;101846.69;;;11.30;100.00
50133;BME280;46340;53.148;8.204;2022-07-04T02:00:31;101848.75;;;11.24;100.00
50133;BME280;46340;53.148;8.204;2022-07-04T02:03:15;101849.75;;;11.20;100.00
50133;BME280;46340;53.148;8.204;2022-07-04T02:05:42;101847.47;;;11.13;100.00
50133;BME280;46340;53.148;8.204;2022-07-04T02:08:07;101846.66;;;11.13;100.00
50133;BME280;46340;53.148;8.204;2022-07-04T02:10:36;101845.16;;;11.06;100.00
50133;BME280;46340;53.148;8.204;2022-07-04T02:13:01;101850.53;;;11.12;100.00
50133;BME280;46340;53.148;8.204;2022-07-04T02:15:31;101851.50;;;11.07;100.00
50133;BME280;46340;53.148;8.204;2022-07-04T02:17:57;101848.41;;;11.08;100.00
50133;BME280;46340;53.148;8.204;2022-07-04T02:20:22;101848.91;;;11.10;100.00
50133;BME280;46340;53.148;8.204;2022-07-04T02:22:47;101847.13;;;11.06;100.00
50133;BME280;46340;53.148;8.204;2022-07-04T02:25:13;101839.16;;;11.04;100.00
50133;BME280;46340;53.148;8.204;2022-07-04T02:27:38;101850.38;;;10.99;100.00
50133;BME280;46340;53.148;8.204;2022-07-04T02:30:04;101842.41;;;11.06;100.00
50133;BME280;46340;53.148;8.204;2022-07-04T02:32:29;101835.41;;;11.00;100.00
50133;BME280;46340;53.148;8.204;2022-07-04T02:34:54;101837.97;;;10.88;100.00
50133;BME280;46340;53.148;8.204;2022-07-04T02:37:20;101835.50;;;10.78;100.00
50133;BME280;46340;53.148;8.204;2022-07-04T02:39:45;101841.19;;;10.81;100.00
50133;BME280;46340;53.148;8.204;2022-07-04T02:42:10;101841.41;;;10.85;100.00
50133;BME280;46340;53.148;8.204;2022-07-04T02:44:35;101835.34;;;10.83;100.00
50133;BME280;46340;53.148;8.204;2022-07-04T02:47:00;101839.44;;;10.85;100.00
50133;BME280;46340;53.148;8.204;2022-07-04T02:49:26;101828.72;;;10.84;100.00
50133;BME280;46340;53.148;8.204;2022-07-04T02:51:51;101835.88;;;10.85;100.00
50133;BME280;46340;53.148;8.204;2022-07-04T02:54:17;101835.03;;;10.84;100.00
50133;BME280;46340;53.148;8.204;2022-07-04T02:56:42;101827.38;;;10.81;100.00
50133;BME280;46340;53.148;8.204;2022-07-04T02:59:07;101829.19;;;10.86;100.00
50133;BME280;46340;53.148;8.204;2022-07-04T03:01:32;101837.97;;;10.88;100.00
50133;BME280;46340;53.148;8.204;2022-07-04T03:03:57;101831.81;;;10.91;100.00
50133;BME280;46340;53.148;8.204;2022-07-04T03:06:23;101836.53;;;10.90;100.00
50133;BME280;46340;53.148;8.204;2022-07-04T03:08:48;101827.25;;;10.95;100.00
50133;BME280;46340;53.148;8.204;2022-07-04T03:11:13;101828.72;;;10.93;100.00
50133;BME280;46340;53.148;8.204;2022-07-04T03:13:39;101827.59;;;10.94;100.00
50133;BME280;46340;53.148;8.204;2022-07-04T03:16:05;101829.66;;;10.79;100.00
50133;BME280;46340;53.148;8.204;2022-07-04T03:18:30;101832.59;;;10.83;100.00
50133;BME280;46340;53.148;8.204;2022-07-04T03:20:55;101828.22;;;10.82;100.00
50133;BME280;46340;53.148;8.204;2022-07-04T03:23:20;101826.41;;;10.77;100.00
50133;BME280;46340;53.148;8.204;2022-07-04T03:25:46;101833.75;;;10.82;100.00
50133;BME280;46340;53.148;8.204;2022-07-04T03:28:11;101833.28;;;10.97;100.00
50133;BME280;46340;53.148;8.204;2022-07-04T03:30:36;101831.03;;;10.99;100.00
50133;BME280;46340;53.148;8.204;2022-07-04T03:33:02;101831.19;;;10.94;100.00
50133;BME280;46340;53.148;8.204;2022-07-04T03:35:27;101842.38;;;10.89;100.00
50133;BME280;46340;53.148;8.204;2022-07-04T03:37:53;101843.50;;;10.88;100.00
50133;BME280;46340;53.148;8.204;2022-07-04T03:40:18;101843.97;;;10.90;100.00
50133;BME280;46340;53.148;8.204;2022-07-04T03:42:44;101841.56;;;10.88;100.00
50133;BME280;46340;53.148;8.204;2022-07-04T03:45:09;101842.53;;;10.93;100.00
50133;BME280;46340;53.148;8.204;2022-07-04T03:47:34;101845.00;;;10.94;100.00
50133;BME280;46340;53.148;8.204;2022-07-04T03:50:00;101852.81;;;11.01;100.00
50133;BME280;46340;53.148;8.204;2022-07-04T03:52:25;101844.19;;;11.02;100.00
50133;BME280;46340;53.148;8.204;2022-07-04T03:54:50;101850.38;;;10.99;100.00
50133;BME280;46340;53.148;8.204;2022-07-04T03:57:16;101857.00;;;10.98;100.00
50133;BME280;46340;53.148;8.204;2022-07-04T03:59:41;101867.44;;;11.01;100.00
50133;BME280;46340;53.148;8.204;2022-07-04T04:02:06;101869.06;;;11.02;100.00
50133;BME280;46340;53.148;8.204;2022-07-04T04:04:31;101865.16;;;11.03;100.00
50133;BME280;46340;53.148;8.204;2022-07-04T04:07:15;101870.19;;;11.01;100.00
50133;BME280;46340;53.148;8.204;2022-07-04T04:09:40;101871.16;;;11.05;100.00
50133;BME280;46340;53.148;8.204;2022-07-04T04:12:06;101876.22;;;11.12;100.00
50133;BME280;46340;53.148;8.204;2022-07-04T04:14:31;101879.00;;;11.21;100.00
50133;BME280;46340;53.148;8.204;2022-07-04T04:16:56;101882.09;;;11.28;100.00
50133;BME280;46340;53.148;8.204;2022-07-04T04:19:21;101881.94;;;11.33;100.00
50133;BME280;46340;53.148;8.204;2022-07-04T04:21:46;101876.75;;;11.32;100.00
50133;BME280;46340;53.148;8.204;2022-07-04T04:24:12;101876.41;;;11.33;100.00
50133;BME280;46340;53.148;8.204;2022-07-04T04:26:37;101885.88;;;11.41;100.00
50133;BME280;46340;53.148;8.204;2022-07-04T04:29:02;101879.72;;;11.53;100.00
50133;BME280;46340;53.148;8.204;2022-07-04T04:31:28;101880.03;;;11.60;100.00
50133;BME280;46340;53.148;8.204;2022-07-04T04:33:53;101883.13;;;11.67;100.00
50133;BME280;46340;53.148;8.204;2022-07-04T04:36:18;101882.63;;;11.74;100.00
50133;BME280;46340;53.148;8.204;2022-07-04T04:38:43;101888.47;;;11.81;100.00
50133;BME280;46340;53.148;8.204;2022-07-04T04:41:09;101890.75;;;11.88;100.00
50133;BME280;46340;53.148;8.204;2022-07-04T04:43:34;101896.97;;;11.93;100.00
50133;BME280;46340;53.148;8.204;2022-07-04T04:45:59;101894.03;;;11.98;100.00
50133;BME280;46340;53.148;8.204;2022-07-04T04:48:24;101897.09;;;12.06;100.00
50133;BME280;46340;53.148;8.204;2022-07-04T04:50:50;101892.22;;;12.11;100.00
50133;BME280;46340;53.148;8.204;2022-07-04T04:53:15;101898.06;;;12.18;100.00
50133;BME280;46340;53.148;8.204;2022-07-04T04:55:40;101899.97;;;12.27;100.00
50133;BME280;46340;53.148;8.204;2022-07-04T04:58:05;101888.56;;;12.28;100.00
50133;BME280;46340;53.148;8.204;2022-07-04T05:00:31;101898.03;;;12.36;100.00
50133;BME280;46340;53.148;8.204;2022-07-04T05:02:56;101895.56;;;12.43;100.00
50133;BME280;46340;53.148;8.204;2022-07-04T05:05:21;101893.41;;;12.49;100.00
50133;BME280;46340;53.148;8.204;2022-07-04T05:07:46;101885.72;;;12.54;100.00
50133;BME280;46340;53.148;8.204;2022-07-04T05:10:12;101887.78;;;12.66;100.00
50133;BME280;46340;53.148;8.204;2022-07-04T05:12:37;101891.69;;;12.74;100.00
50133;BME280;46340;53.148;8.204;2022-07-04T05:15:02;101897.00;;;12.88;100.00
50133;BME280;46340;53.148;8.204;2022-07-04T05:17:28;101900.19;;;12.98;100.00
50133;BME280;46340;53.148;8.204;2022-07-04T05:19:53;101898.03;;;13.04;100.00
50133;BME280;46340;53.148;8.204;2022-07-04T05:22:18;101899.63;;;13.14;100.00
50133;BME280;46340;53.148;8.204;2022-07-04T05:24:43;101901.53;;;13.22;100.00
50133;BME280;46340;53.148;8.204;2022-07-04T05:27:08;101895.09;;;13.30;100.00
50133;BME280;46340;53.148;8.204;2022-07-04T05:29:34;101902.72;;;13.42;100.00
50133;BME280;46340;53.148;8.204;2022-07-04T05:31:59;101896.78;;;13.52;100.00
50133;BME280;46340;53.148;8.204;2022-07-04T05:34:24;101889.56;;;13.60;100.00
50133;BME280;46340;53.148;8.204;2022-07-04T05:36:50;101893.53;;;13.71;100.00
50133;BME280;46340;53.148;8.204;2022-07-04T05:39:15;101882.81;;;13.82;100.00
50133;BME280;46340;53.148;8.204;2022-07-04T05:41:40;101872.91;;;13.94;100.00
50133;BME280;46340;53.148;8.204;2022-07-04T05:44:05;101874.47;;;14.03;100.00
50133;BME280;46340;53.148;8.204;2022-07-04T05:46:31;101877.59;;;14.14;100.00
50133;BME280;46340;53.148;8.204;2022-07-04T05:48:56;101877.06;;;14.21;100.00
50133;BME280;46340;53.148;8.204;2022-07-04T05:51:21;101884.25;;;14.34;100.00
50133;BME280;46340;53.148;8.204;2022-07-04T05:53:46;101887.53;;;14.48;100.00
50133;BME280;46340;53.148;8.204;2022-07-04T05:56:12;101876.00;;;14.59;100.00
50133;BME280;46340;53.148;8.204;2022-07-04T05:58:37;101881.09;;;14.69;100.00
50133;BME280;46340;53.148;8.204;2022-07-04T06:01:03;101888.25;;;14.70;100.00
50133;BME280;46340;53.148;8.204;2022-07-04T06:03:28;101872.63;;;14.78;100.00
50133;BME280;46340;53.148;8.204;2022-07-04T06:05:53;101879.47;;;14.80;100.00
50133;BME280;46340;53.148;8.204;2022-07-04T06:08:18;101877.47;;;14.81;100.00
50133;BME280;46340;53.148;8.204;2022-07-04T06:10:45;101878.19;;;14.90;100.00
50133;BME280;46340;53.148;8.204;2022-07-04T06:13:10;101877.72;;;15.00;100.00
50133;BME280;46340;53.148;8.204;2022-07-04T06:15:35;101875.28;;;15.11;100.00
50133;BME280;46340;53.148;8.204;2022-07-04T06:18:00;101872.34;;;15.20;100.00
50133;BME280;46340;53.148;8.204;2022-07-04T06:20:27;101873.06;;;15.17;100.00
50133;BME280;46340;53.148;8.204;2022-07-04T06:22:52;101873.03;;;15.29;100.00
50133;BME280;46340;53.148;8.204;2022-07-04T06:25:18;101867.56;;;15.33;100.00
50133;BME280;46340;53.148;8.204;2022-07-04T06:27:44;101867.06;;;15.43;100.00
50133;BME280;46340;53.148;8.204;2022-07-04T06:30:10;101866.72;;;15.45;100.00
50133;BME280;46340;53.148;8.204;2022-07-04T06:32:43;101860.00;;;15.46;100.00
50133;BME280;46340;53.148;8.204;2022-07-04T06:35:08;101876.75;;;15.33;100.00
50133;BME280;46340;53.148;8.204;2022-07-04T06:37:52;101862.00;;;15.45;100.00
50133;BME280;46340;53.148;8.204;2022-07-04T06:40:17;101875.28;;;15.52;100.00
50133;BME280;46340;53.148;8.204;2022-07-04T06:42:42;101874.88;;;15.66;100.00
50133;BME280;46340;53.148;8.204;2022-07-04T06:45:08;101880.81;;;15.76;100.00
50133;BME280;46340;53.148;8.204;2022-07-04T06:47:33;101883.94;;;15.75;100.00
50133;BME280;46340;53.148;8.204;2022-07-04T06:49:58;101886.34;;;15.89;100.00
50133;BME280;46340;53.148;8.204;2022-07-04T06:52:24;101896.97;;;15.99;100.00
50133;BME280;46340;53.148;8.204;2022-07-04T06:54:49;101893.81;;;16.01;100.00
50133;BME280;46340;53.148;8.204;2022-07-04T06:57:14;101891.94;;;16.05;100.00
50133;BME280;46340;53.148;8.204;2022-07-04T06:59:39;101897.19;;;16.22;100.00
50133;BME280;46340;53.148;8.204;2022-07-04T07:02:04;101905.44;;;16.19;100.00
50133;BME280;46340;53.148;8.204;2022-07-04T07:04:30;101890.72;;;16.18;100.00
50133;BME280;46340;53.148;8.204;2022-07-04T07:06:55;101894.22;;;16.31;100.00
50133;BME280;46340;53.148;8.204;2022-07-04T07:09:20;101883.63;;;16.36;100.00
50133;BME280;46340;53.148;8.204;2022-07-04T07:11:45;101882.91;;;16.40;100.00
50133;BME280;46340;53.148;8.204;2022-07-04T07:14:10;101878.53;;;16.39;100.00
50133;BME280;46340;53.148;8.204;2022-07-04T07:16:36;101877.81;;;16.58;100.00
50133;BME280;46340;53.148;8.204;2022-07-04T07:19:01;101877.50;;;16.79;100.00
50133;BME280;46340;53.148;8.204;2022-07-04T07:21:26;101875.44;;;16.91;100.00
50133;BME280;46340;53.148;8.204;2022-07-04T07:23:51;101870.47;;;17.01;100.00
50133;BME280;46340;53.148;8.204;2022-07-04T07:26:16;101870.75;;;16.96;100.00
50133;BME280;46340;53.148;8.204;2022-07-04T07:28:42;101870.94;;;17.03;100.00
50133;BME280;46340;53.148;8.204;2022-07-04T07:31:07;101869.47;;;17.09;100.00
50133;BME280;46340;53.148;8.204;2022-07-04T07:33:32;101876.25;;;17.08;100.00
50133;BME280;46340;53.148;8.204;2022-07-04T07:35:58;101872.88;;;17.18;100.00
50133;BME280;46340;53.148;8.204;2022-07-04T07:38:23;101878.47;;;17.18;100.00
50133;BME280;46340;53.148;8.204;2022-07-04T07:40:48;101879.78;;;17.24;100.00
50133;BME280;46340;53.148;8.204;2022-07-04T07:43:13;101882.72;;;17.32;100.00
50133;BME280;46340;53.148;8.204;2022-07-04T07:45:38;101878.25;;;17.27;100.00
50133;BME280;46340;53.148;8.204;2022-07-04T07:48:04;101876.50;;;17.38;100.00
50133;BME280;46340;53.148;8.204;2022-07-04T07:50:29;101873.63;;;17.35;100.00
50133;BME280;46340;53.148;8.204;2022-07-04T07:52:55;101867.56;;;17.48;100.00
50133;BME280;46340;53.148;8.204;2022-07-04T07:55:20;101876.00;;;17.52;100.00
50133;BME280;46340;53.148;8.204;2022-07-04T07:57:45;101881.16;;;17.50;100.00
50133;BME280;46340;53.148;8.204;2022-07-04T08:00:10;101870.78;;;17.51;100.00
50133;BME280;46340;53.148;8.204;2022-07-04T08:02:36;101872.25;;;17.64;100.00
50133;BME280;46340;53.148;8.204;2022-07-04T08:05:20;101856.84;;;17.90;100.00
50133;BME280;46340;53.148;8.204;2022-07-04T08:07:45;101857.22;;;17.88;100.00
50133;BME280;46340;53.148;8.204;2022-07-04T08:10:11;101864.00;;;18.10;100.00
50133;BME280;46340;53.148;8.204;2022-07-04T08:12:36;101864.50;;;18.39;100.00
50133;BME280;46340;53.148;8.204;2022-07-04T08:15:02;101859.75;;;18.39;100.00
50133;BME280;46340;53.148;8.204;2022-07-04T08:17:27;101854.53;;;18.38;100.00
50133;BME280;46340;53.148;8.204;2022-07-04T08:19:53;101857.28;;;18.61;100.00
50133;BME280;46340;53.148;8.204;2022-07-04T08:22:18;101853.66;;;18.57;100.00
50133;BME280;46340;53.148;8.204;2022-07-04T08:24:44;101851.16;;;18.52;100.00
50133;BME280;46340;53.148;8.204;2022-07-04T08:27:09;101849.56;;;18.77;100.00
50133;BME280;46340;53.148;8.204;2022-07-04T08:29:35;101857.41;;;18.91;100.00
50133;BME280;46340;53.148;8.204;2022-07-04T08:32:00;101846.31;;;18.98;100.00
50133;BME280;46340;53.148;8.204;2022-07-04T08:34:25;101859.19;;;18.80;100.00
50133;BME280;46340;53.148;8.204;2022-07-04T08:36:50;101850.44;;;18.82;100.00
50133;BME280;46340;53.148;8.204;2022-07-04T08:39:16;101843.38;;;19.18;100.00
50133;BME280;46340;53.148;8.204;2022-07-04T08:41:42;101843.41;;;19.48;100.00
50133;BME280;46340;53.148;8.204;2022-07-04T08:44:07;101852.56;;;19.45;100.00
50133;BME280;46340;53.148;8.204;2022-07-04T08:46:35;101842.25;;;19.23;100.00
50133;BME280;46340;53.148;8.204;2022-07-04T08:49:01;101842.59;;;19.51;100.00
50133;BME280;46340;53.148;8.204;2022-07-04T08:54:00;101842.34;;;19.64;100.00
50133;BME280;46340;53.148;8.204;2022-07-04T08:56:26;101857.41;;;19.82;100.00
50133;BME280;46340;53.148;8.204;2022-07-04T08:59:10;101850.25;;;19.85;100.00
50133;BME280;46340;53.148;8.204;2022-07-04T09:01:36;101853.69;;;20.08;100.00
50133;BME280;46340;53.148;8.204;2022-07-04T09:04:04;101848.81;;;20.02;99.02
50133;BME280;46340;53.148;8.204;2022-07-04T09:06:30;101851.97;;;20.41;99.29
50133;BME280;46340;53.148;8.204;2022-07-04T09:08:56;101848.38;;;20.41;97.20
50133;BME280;46340;53.148;8.204;2022-07-04T09:11:21;101845.16;;;20.39;93.30
50133;BME280;46340;53.148;8.204;2022-07-04T09:13:46;101849.69;;;20.54;96.44
50133;BME280;46340;53.148;8.204;2022-07-04T09:16:13;101852.66;;;20.27;92.04
50133;BME280;46340;53.148;8.204;2022-07-04T09:18:38;101852.06;;;20.04;96.37
50133;BME280;46340;53.148;8.204;2022-07-04T09:21:04;101856.19;;;20.21;99.38
50133;BME280;46340;53.148;8.204;2022-07-04T09:23:40;101865.84;;;20.23;94.42
50133;BME280;46340;53.148;8.204;2022-07-04T09:26:07;101856.09;;;19.72;95.80
50133;BME280;46340;53.148;8.204;2022-07-04T09:28:32;101844.97;;;20.21;93.77
50133;BME280;46340;53.148;8.204;2022-07-04T09:30:57;101857.00;;;20.62;91.78
50133;BME280;46340;53.148;8.204;2022-07-04T09:33:32;101850.47;;;20.51;84.12
50133;BME280;46340;53.148;8.204;2022-07-04T09:36:14;101859.59;;;20.85;83.02
50133;BME280;46340;53.148;8.204;2022-07-04T09:38:40;101848.81;;;20.95;82.90
50133;BME280;46340;53.148;8.204;2022-07-04T09:41:05;101845.97;;;20.39;83.16
50133;BME280;46340;53.148;8.204;2022-07-04T09:44:05;101848.66;;;20.25;86.75
50133;BME280;46340;53.148;8.204;2022-07-04T09:46:31;101841.66;;;20.49;88.05
50133;BME280;46340;53.148;8.204;2022-07-04T09:48:56;101841.13;;;20.84;88.93
50133;BME280;46340;53.148;8.204;2022-07-04T09:51:41;101832.69;;;20.81;81.21
50133;BME280;46340;53.148;8.204;2022-07-04T09:54:14;101832.16;;;21.31;86.05
50133;BME280;46340;53.148;8.204;2022-07-04T09:56:40;101833.41;;;21.40;76.05
50133;BME280;46340;53.148;8.204;2022-07-04T09:59:06;101843.78;;;21.26;74.28
50133;BME280;46340;53.148;8.204;2022-07-04T10:01:31;101833.97;;;20.91;72.84
50133;BME280;46340;53.148;8.204;2022-07-04T10:03:56;101832.19;;;21.38;76.09
50133;BME280;46340;53.148;8.204;2022-07-04T10:06:22;101827.47;;;21.49;71.08
50133;BME280;46340;53.148;8.204;2022-07-04T10:08:49;101813.94;;;21.98;71.28
50133;BME280;46340;53.148;8.204;2022-07-04T10:11:15;101818.78;;;22.08;69.64
50133;BME280;46340;53.148;8.204;2022-07-04T10:13:40;101821.53;;;21.79;66.46
50133;BME280;46340;53.148;8.204;2022-07-04T10:16:06;101827.16;;;21.87;67.61
50133;BME280;46340;53.148;8.204;2022-07-04T10:18:33;101825.97;;;21.98;64.87
50133;BME280;46340;53.148;8.204;2022-07-04T10:20:59;101825.09;;;21.73;66.59
50133;BME280;46340;53.148;8.204;2022-07-04T10:23:24;101821.44;;;21.51;69.45
50133;BME280;46340;53.148;8.204;2022-07-04T10:25:56;101823.38;;;21.39;70.05
50133;BME280;46340;53.148;8.204;2022-07-04T10:28:21;101815.00;;;21.54;68.89
50133;BME280;46340;53.148;8.204;2022-07-04T10:30:50;101816.25;;;21.64;67.81
50133;BME280;46340;53.148;8.204;2022-07-04T10:33:17;101824.69;;;21.67;66.29
50133;BME280;46340;53.148;8.204;2022-07-04T10:35:51;101806.69;;;22.01;67.32
50133;BME280;46340;53.148;8.204;2022-07-04T10:38:17;101817.97;;;22.22;68.42
50133;BME280;46340;53.148;8.204;2022-07-04T10:40:52;101821.91;;;21.74;68.55
50133;BME280;46340;53.148;8.204;2022-07-04T10:45:50;101813.53;;;22.25;66.09
50133;BME280;46340;53.148;8.204;2022-07-04T10:48:19;101807.91;;;22.71;64.81
50133;BME280;46340;53.148;8.204;2022-07-04T10:50:56;101804.31;;;22.46;63.00
50133;BME280;46340;53.148;8.204;2022-07-04T10:53:23;101808.38;;;22.38;61.89
50133;BME280;46340;53.148;8.204;2022-07-04T10:55:49;101813.94;;;22.27;63.20
50133;BME280;46340;53.148;8.204;2022-07-04T10:58:27;101809.56;;;22.44;62.82
50133;BME280;46340;53.148;8.204;2022-07-04T11:01:12;101804.72;;;22.15;63.25
50133;BME280;46340;53.148;8.204;2022-07-04T11:03:44;101815.13;;;21.97;68.20
50133;BME280;46340;53.148;8.204;2022-07-04T11:12:00;101803.88;;;27.42;49.40
50133;BME280;46340;53.148;8.204;2022-07-04T11:14:39;101803.94;;;26.31;49.61
50133;BME280;46340;53.148;8.204;2022-07-04T11:17:04;101801.84;;;26.11;51.13
50133;BME280;46340;53.148;8.204;2022-07-04T11:19:30;101806.22;;;26.39;49.60
50133;BME280;46340;53.148;8.204;2022-07-04T11:21:56;101806.69;;;27.78;46.04
50133;BME280;46340;53.148;8.204;2022-07-04T11:24:21;101815.75;;;27.73;44.05
50133;BME280;46340;53.148;8.204;2022-07-04T11:26:47;101795.19;;;26.89;49.07
50133;BME280;46340;53.148;8.204;2022-07-04T11:29:12;101794.25;;;26.04;49.19
50133;BME280;46340;53.148;8.204;2022-07-04T11:31:42;101795.63;;;26.87;46.49
50133;BME280;46340;53.148;8.204;2022-07-04T11:34:07;101783.59;;;28.29;45.04
50133;BME280;46340;53.148;8.204;2022-07-04T11:36:33;101777.44;;;28.63;44.66
50133;BME280;46340;53.148;8.204;2022-07-04T11:39:02;101781.25;;;29.15;41.67
50133;BME280;46340;53.148;8.204;2022-07-04T11:41:32;101793.56;;;25.39;47.82
50133;BME280;46340;53.148;8.204;2022-07-04T11:44:19;101787.69;;;25.22;49.89
50133;BME280;46340;53.148;8.204;2022-07-04T11:47:10;101778.28;;;24.15;54.65
50133;BME280;46340;53.148;8.204;2022-07-04T11:49:40;101783.28;;;24.87;53.07
50133;BME280;46340;53.148;8.204;2022-07-04T11:52:05;101783.00;;;25.08;53.10
50133;BME280;46340;53.148;8.204;2022-07-04T11:54:31;101788.16;;;23.00;62.75
50133;BME280;46340;53.148;8.204;2022-07-04T11:57:09;101786.22;;;21.86;67.46
50133;BME280;46340;53.148;8.204;2022-07-04T11:59:34;101785.34;;;21.67;72.63
50133;BME280;46340;53.148;8.204;2022-07-04T12:02:08;101781.47;;;24.17;62.09
50133;BME280;46340;53.148;8.204;2022-07-04T12:04:34;101775.53;;;26.81;52.59
50133;BME280;46340;53.148;8.204;2022-07-04T12:07:04;101774.13;;;25.10;55.94
50133;BME280;46340;53.148;8.204;2022-07-04T12:09:32;101765.88;;;26.55;52.70
50133;BME280;46340;53.148;8.204;2022-07-04T12:11:58;101767.88;;;27.38;49.83
50133;BME280;46340;53.148;8.204;2022-07-04T12:14:24;101766.34;;;26.06;53.25
50133;BME280;46340;53.148;8.204;2022-07-04T12:17:08;101760.66;;;25.21;54.76
50133;BME280;46340;53.148;8.204;2022-07-04T12:19:33;101768.28;;;26.57;51.54
50133;BME280;46340;53.148;8.204;2022-07-04T12:21:59;101791.03;;;28.39;46.46
50133;BME280;46340;53.148;8.204;2022-07-04T12:24:26;101752.50;;;27.56;47.87
50133;BME280;46340;53.148;8.204;2022-07-04T12:26:51;101751.19;;;29.56;45.66
50133;BME280;46340;53.148;8.204;2022-07-04T12:29:20;101755.28;;;29.30;44.31
50133;BME280;46340;53.148;8.204;2022-07-04T12:31:45;101750.72;;;29.71;44.45
50133;BME280;46340;53.148;8.204;2022-07-04T12:34:15;101740.81;;;29.50;44.44
50133;BME280;46340;53.148;8.204;2022-07-04T12:36:47;101753.13;;;28.62;42.38
50133;BME280;46340;53.148;8.204;2022-07-04T12:39:25;101747.19;;;27.01;45.30
50133;BME280;46340;53.148;8.204;2022-07-04T12:41:50;101753.44;;;27.33;43.53
50133;BME280;46340;53.148;8.204;2022-07-04T12:44:27;101741.63;;;28.37;42.35
50133;BME280;46340;53.148;8.204;2022-07-04T12:46:55;101749.06;;;28.30;39.56
50133;BME280;46340;53.148;8.204;2022-07-04T12:49:20;101738.09;;;29.46;37.14
50133;BME280;46340;53.148;8.204;2022-07-04T12:51:46;101747.19;;;26.14;43.44